Time;durP1;ratioP1;P1;durP2;ratioP2;P2;SDS_P1;SDS_P2;PMS_P1;PMS_P2;Temp;Humidity;BMP_temperature;BMP_pressure;BME280_temperature;BME280_humidity;BME280_pressure;Samples;Min_cycle;Max_cycle;Signal;HPM_P1;HPM_P2
2023/02/11 00:01:46;;;;;;;29.40;22.02;;;-0.60;99.90;;;;;;5111367;28;20433;-77
2023/02/11 00:04:11;;;;;;;28.45;21.90;;;-0.80;99.90;;;;;;5109865;28;20453;-77
2023/02/11 00:06:37;;;;;;;27.83;20.75;;;;;;;;;;5110961;28;20435;-77
2023/02/11 00:09:03;;;;;;;30.00;20.75;;;;;;;;;;5111255;28;20841;-77
2023/02/11 00:11:29;;;;;;;27.02;20.20;;;-0.90;99.90;;;;;;5111542;28;20917;-77
2023/02/11 00:13:56;;;;;;;25.48;20.17;;;-0.90;99.90;;;;;;5110762;28;20407;-77
2023/02/11 00:16:22;;;;;;;28.50;18.63;;;-0.70;99.90;;;;;;5110638;28;20391;-77
2023/02/11 00:18:49;;;;;;;25.08;19.48;;;-0.40;99.90;;;;;;5110215;28;20765;-77
2023/02/11 00:21:18;;;;;;;25.67;18.55;;;-1.00;99.90;;;;;;5102665;28;20371;-78
2023/02/11 00:23:44;;;;;;;24.15;17.60;;;-0.70;99.90;;;;;;5104459;28;20384;-77
2023/02/11 00:26:18;;;;;;;22.77;18.52;;;0.10;99.90;;;;;;5097954;28;20442;-77
2023/02/11 00:28:45;;;;;;;27.45;18.70;;;-0.80;99.90;;;;;;5106217;28;20380;-78
2023/02/11 00:31:11;;;;;;;24.75;18.08;;;-0.70;99.90;;;;;;5098713;28;20399;-77
2023/02/11 00:33:36;;;;;;;26.45;18.65;;;-0.70;99.90;;;;;;5110872;28;20399;-77
2023/02/11 00:36:15;;;;;;;26.03;18.67;;;-0.40;99.90;;;;;;5109044;28;20392;-78
2023/02/11 00:38:43;;;;;;;26.15;18.08;;;-0.60;99.90;;;;;;5109483;28;20472;-78
2023/02/11 00:41:08;;;;;;;29.05;19.85;;;-0.40;99.90;;;;;;5110836;28;20380;-78
2023/02/11 00:43:34;;;;;;;27.08;18.67;;;-0.70;99.90;;;;;;5091822;28;20435;-77
2023/02/11 00:46:00;;;;;;;27.75;18.42;;;-0.70;99.90;;;;;;5090738;28;20406;-78
2023/02/11 00:48:26;;;;;;;26.80;17.93;;;-0.70;99.90;;;;;;5095739;28;20482;-77
2023/02/11 00:50:51;;;;;;;22.67;17.67;;;-0.70;99.90;;;;;;5110804;28;20384;-77
2023/02/11 00:53:17;;;;;;;24.58;17.83;;;;;;;;;;5110591;28;20373;-78
2023/02/11 00:55:43;;;;;;;24.02;17.65;;;0.40;99.90;;;;;;5110782;28;20775;-77
2023/02/11 00:58:08;;;;;;;25.20;18.00;;;-0.80;99.90;;;;;;5111372;28;20418;-77
2023/02/11 01:00:34;;;;;;;25.30;17.93;;;-0.20;99.90;;;;;;5111260;28;20399;-77
2023/02/11 01:02:59;;;;;;;26.30;18.57;;;0.60;99.90;;;;;;5110452;28;20935;-78
2023/02/11 01:05:25;;;;;;;27.30;18.33;;;-0.70;99.90;;;;;;5109340;28;20902;-77
2023/02/11 01:07:50;;;;;;;21.20;16.53;;;0.40;99.90;;;;;;5090055;28;20832;-77
2023/02/11 01:10:16;;;;;;;24.42;17.05;;;-0.60;99.90;;;;;;5089829;28;20385;-77
2023/02/11 01:12:42;;;;;;;23.50;17.10;;;-1.40;99.90;;;;;;5090038;28;20382;-77
2023/02/11 01:15:08;;;;;;;22.97;16.70;;;-0.90;99.90;;;;;;5089853;28;20425;-77
2023/02/11 01:17:35;;;;;;;21.45;16.60;;;-0.70;99.90;;;;;;5089625;28;20443;-78
2023/02/11 01:20:05;;;;;;;25.90;15.23;;;-0.60;99.90;;;;;;5106251;28;20415;-77
2023/02/11 01:22:33;;;;;;;22.95;16.25;;;-0.40;99.90;;;;;;5110003;28;20411;-77
2023/02/11 01:24:59;;;;;;;22.95;16.10;;;;;;;;;;5109911;28;20816;-77
2023/02/11 01:27:24;;;;;;;22.67;16.40;;;-0.90;99.90;;;;;;5110100;28;20379;-78
2023/02/11 01:29:50;;;;;;;21.92;16.55;;;-0.80;99.90;;;;;;5106697;28;20877;-77
2023/02/11 01:32:15;;;;;;;22.13;16.05;;;-0.90;99.90;;;;;;5105446;28;20408;-77
2023/02/11 01:34:41;;;;;;;22.42;17.10;;;-0.90;99.90;;;;;;5099522;28;20953;-77
2023/02/11 01:37:06;;;;;;;25.60;17.58;;;-1.00;99.90;;;;;;5100082;28;20427;-77
2023/02/11 01:39:33;;;;;;;23.40;16.35;;;-1.20;99.90;;;;;;5113772;28;20415;-77
2023/02/11 01:41:58;;;;;;;21.90;16.73;;;-1.00;99.90;;;;;;5113203;28;20395;-77
2023/02/11 01:44:37;;;;;;;25.57;18.00;;;-1.10;99.90;;;;;;5109966;28;20398;-77
2023/02/11 01:47:05;;;;;;;25.98;18.38;;;-1.30;99.90;;;;;;5091764;28;20386;-77
2023/02/11 01:49:35;;;;;;;23.07;17.73;;;-1.10;99.90;;;;;;5093608;28;20473;-77
2023/02/11 01:52:16;;;;;;;24.05;16.85;;;-0.70;99.90;;;;;;5098918;28;20396;-77
2023/02/11 01:57:41;;;;;;;26.38;18.83;;;-1.40;99.90;;;;;;5113538;28;20375;-77
2023/02/11 02:00:11;;;;;;;25.10;17.25;;;-0.80;99.90;;;;;;5093772;28;20443;-77
2023/02/11 02:02:57;;;;;;;26.60;18.67;;;-1.20;99.90;;;;;;5107085;28;20385;-77
2023/02/11 02:05:31;;;;;;;24.50;18.00;;;-1.10;99.90;;;;;;5092918;28;20402;-77
2023/02/11 02:08:12;;;;;;;23.00;16.40;;;-1.20;99.90;;;;;;5113287;28;20399;-77
2023/02/11 02:10:43;;;;;;;23.17;16.40;;;-1.70;99.90;;;;;;5113484;28;20387;-77
2023/02/11 02:13:09;;;;;;;23.45;18.40;;;;;;;;;;5113500;28;20453;-77
2023/02/11 02:15:37;;;;;;;26.33;17.33;;;-1.10;99.90;;;;;;5104457;28;20392;-78
2023/02/11 02:18:17;;;;;;;22.35;18.20;;;-0.90;99.90;;;;;;5113214;28;20376;-78
2023/02/11 02:21:13;;;;;;;24.50;16.90;;;-1.20;99.90;;;;;;5113061;28;20442;-77
2023/02/11 02:24:14;;;;;;;23.58;17.33;;;-1.10;99.90;;;;;;5113222;28;20382;-77
2023/02/11 02:27:03;;;;;;;22.73;16.50;;;-0.70;99.90;;;;;;5106894;27;20400;-78
2023/02/11 02:29:56;;;;;;;23.15;15.85;;;-0.70;99.90;;;;;;5113154;28;20372;-77
2023/02/11 02:32:40;;;;;;;25.00;16.83;;;-1.20;99.90;;;;;;5113181;28;20386;-77
2023/02/11 02:35:22;;;;;;;20.20;15.43;;;-0.70;99.90;;;;;;5113080;28;20372;-77
2023/02/11 02:38:00;;;;;;;22.73;16.77;;;-1.30;99.90;;;;;;5111429;28;20901;-77
2023/02/11 02:40:37;;;;;;;20.92;16.85;;;-0.80;99.90;;;;;;5112535;28;20388;-77
2023/02/11 02:43:03;;;;;;;23.92;16.98;;;-0.70;99.90;;;;;;5112219;27;20779;-78
2023/02/11 02:45:29;;;;;;;20.23;15.38;;;-1.30;99.90;;;;;;5112369;28;20563;-77
2023/02/11 02:47:55;;;;;;;22.40;15.57;;;-1.50;99.90;;;;;;5112885;28;20463;-77
2023/02/11 02:50:28;;;;;;;22.17;15.13;;;-1.70;99.90;;;;;;5112842;27;20388;-78
2023/02/11 02:53:10;;;;;;;23.42;15.38;;;-1.40;99.90;;;;;;5111499;28;20980;-77
2023/02/11 02:55:48;;;;;;;21.73;15.30;;;-1.60;99.90;;;;;;5112464;28;20392;-78
2023/02/11 02:58:20;;;;;;;18.87;13.60;;;-1.70;99.90;;;;;;5112569;28;20754;-77
2023/02/11 03:01:16;;;;;;;19.67;13.93;;;-1.40;99.90;;;;;;5112615;28;20896;-77
2023/02/11 03:03:54;;;;;;;22.35;15.15;;;-1.60;99.90;;;;;;5112295;28;20392;-77
2023/02/11 03:06:43;;;;;;;19.90;13.93;;;-0.50;99.90;;;;;;5103998;28;20402;-78
2023/02/11 03:09:16;;;;;;;20.25;15.00;;;-1.40;99.90;;;;;;5096411;28;20399;-77
2023/02/11 03:11:42;;;;;;;20.75;14.45;;;-4.00;99.90;;;;;;5112647;28;20376;-77
2023/02/11 03:14:11;;;;;;;20.00;13.73;;;-1.40;99.90;;;;;;5122870;22;20435;-75
2023/02/11 03:16:38;;;;;;;21.42;13.73;;;-1.60;99.90;;;;;;5070885;28;20388;-75
2023/02/11 03:19:21;;;;;;;20.35;13.98;;;-1.40;99.90;;;;;;5071125;28;20474;-75
2023/02/11 03:21:49;;;;;;;20.65;13.48;;;-1.20;99.90;;;;;;5071303;28;20940;-75
2023/02/11 03:24:30;;;;;;;18.23;13.57;;;-1.20;99.90;;;;;;5076454;28;20406;-75
2023/02/11 03:27:00;;;;;;;18.10;12.73;;;-1.10;99.90;;;;;;5091211;28;20705;-75
2023/02/11 03:29:35;;;;;;;16.30;11.27;;;-0.80;99.90;;;;;;5091387;28;20393;-75
2023/02/11 03:32:06;;;;;;;17.83;12.10;;;-1.20;99.90;;;;;;5091513;28;20377;-75
2023/02/11 03:34:40;;;;;;;15.82;11.52;;;-1.00;99.90;;;;;;5090926;28;20860;-75
2023/02/11 03:37:15;;;;;;;17.67;12.18;;;-1.20;99.90;;;;;;5091112;28;20725;-75
2023/02/11 03:39:53;;;;;;;16.03;12.60;;;-1.30;99.90;;;;;;5072897;28;20373;-75
2023/02/11 03:42:21;;;;;;;15.68;12.05;;;-1.30;99.90;;;;;;5082864;28;20463;-75
2023/02/11 03:44:52;;;;;;;18.48;12.10;;;-1.10;99.90;;;;;;5082452;28;20444;-75
2023/02/11 03:47:22;;;;;;;17.10;12.35;;;-1.40;99.90;;;;;;5090475;28;20479;-75
2023/02/11 03:49:50;;;;;;;16.50;12.68;;;-1.30;99.90;;;;;;5090539;28;20921;-75
2023/02/11 03:52:18;;;;;;;16.85;11.65;;;-1.20;99.90;;;;;;5079857;28;20471;-75
2023/02/11 03:54:46;;;;;;;16.17;11.77;;;-1.40;99.90;;;;;;5066035;28;20386;-74
2023/02/11 03:57:11;;;;;;;18.60;11.98;;;-0.70;99.90;;;;;;5090616;28;20385;-75
2023/02/11 03:59:57;;;;;;;16.77;11.87;;;-1.30;99.90;;;;;;5090710;28;20968;-74
2023/02/11 04:02:29;;;;;;;18.40;10.93;;;-1.20;99.90;;;;;;5090393;28;20404;-75
2023/02/11 04:04:55;;;;;;;14.75;10.40;;;-1.10;99.90;;;;;;5082239;28;20919;-75
2023/02/11 04:07:20;;;;;;;14.90;10.68;;;-0.90;99.90;;;;;;5073409;28;20384;-75
2023/02/11 04:09:46;;;;;;;16.03;10.40;;;-1.20;99.90;;;;;;5070240;28;20453;-75
2023/02/11 04:12:11;;;;;;;16.70;11.13;;;-1.20;99.90;;;;;;5070394;28;20445;-75
2023/02/11 04:14:37;;;;;;;16.30;11.13;;;-1.30;99.90;;;;;;5079027;28;20410;-75
2023/02/11 04:17:03;;;;;;;14.27;11.00;;;-1.00;99.90;;;;;;5087959;28;20417;-75
2023/02/11 04:19:29;;;;;;;16.48;11.82;;;-1.20;99.90;;;;;;5089993;28;20409;-75
2023/02/11 04:21:55;;;;;;;16.60;11.87;;;-0.80;99.90;;;;;;5071997;28;20824;-75
2023/02/11 04:24:20;;;;;;;17.05;12.88;;;-1.30;99.90;;;;;;5072041;28;20409;-75
2023/02/11 04:26:46;;;;;;;18.37;12.43;;;-1.20;99.90;;;;;;5089244;28;20469;-75
2023/02/11 04:29:12;;;;;;;15.63;12.37;;;;;;;;;;5090176;28;20385;-75
2023/02/11 04:31:37;;;;;;;19.20;12.40;;;-1.70;99.90;;;;;;5071820;28;20381;-75
2023/02/11 04:34:03;;;;;;;18.38;11.70;;;-1.30;99.90;;;;;;5089357;28;20386;-75
2023/02/11 04:36:28;;;;;;;16.73;10.75;;;-1.10;99.90;;;;;;5089612;28;20440;-75
2023/02/11 04:38:54;;;;;;;14.35;9.90;;;;;;;;;;5090367;28;20414;-75
2023/02/11 04:41:20;;;;;;;15.20;10.65;;;-1.20;99.90;;;;;;5087952;28;20381;-75
2023/02/11 04:43:45;;;;;;;15.13;10.67;;;-1.40;99.90;;;;;;5089837;28;20381;-75
2023/02/11 04:46:11;;;;;;;15.20;11.70;;;;;;;;;;5090361;28;20382;-75
2023/02/11 04:48:37;;;;;;;15.85;10.82;;;;;;;;;;5090283;28;20374;-75
2023/02/11 04:51:03;;;;;;;17.98;11.38;;;-1.50;99.90;;;;;;5089653;28;20378;-74
2023/02/11 04:53:28;;;;;;;15.80;10.93;;;-1.00;99.90;;;;;;5090510;28;21142;-75
2023/02/11 04:55:54;;;;;;;16.37;11.20;;;-1.30;99.90;;;;;;5090012;28;20411;-75
2023/02/11 04:58:20;;;;;;;17.70;11.63;;;;;;;;;;5090434;28;20390;-75
2023/02/11 05:00:46;;;;;;;14.82;10.48;;;-1.10;99.90;;;;;;5090049;28;20473;-75
2023/02/11 05:03:12;;;;;;;17.63;11.55;;;-1.30;99.90;;;;;;5090482;28;20476;-76
2023/02/11 05:05:39;;;;;;;15.70;11.40;;;-1.40;99.90;;;;;;5089312;28;20409;-75
2023/02/11 05:08:05;;;;;;;15.98;11.40;;;-1.30;99.90;;;;;;5074439;28;20387;-75
2023/02/11 05:10:31;;;;;;;15.50;11.40;;;-1.20;99.90;;;;;;5085755;28;20398;-75
2023/02/11 05:12:56;;;;;;;16.75;10.70;;;-1.00;99.90;;;;;;5094549;28;20885;-75
2023/02/11 05:15:22;;;;;;;15.10;11.30;;;-1.20;99.90;;;;;;5093955;28;20416;-75
2023/02/11 05:17:47;;;;;;;15.93;11.27;;;-1.30;99.90;;;;;;5094213;28;20748;-75
2023/02/11 05:20:13;;;;;;;15.02;10.88;;;-1.50;99.90;;;;;;5094355;28;20749;-75
2023/02/11 05:22:39;;;;;;;13.20;10.25;;;;;;;;;;5094392;28;20729;-75
2023/02/11 05:25:05;;;;;;;16.50;11.00;;;-1.30;99.90;;;;;;5093333;28;20397;-75
2023/02/11 05:27:30;;;;;;;15.55;10.70;;;-0.80;99.90;;;;;;5092659;28;20397;-75
2023/02/11 05:29:56;;;;;;;14.70;10.27;;;-1.60;99.90;;;;;;5093963;28;20454;-75
2023/02/11 05:32:21;;;;;;;14.70;10.65;;;-1.60;99.90;;;;;;5075702;28;20385;-74
2023/02/11 05:34:47;;;;;;;14.47;10.60;;;-1.60;99.90;;;;;;5093371;28;20382;-74
2023/02/11 05:37:12;;;;;;;15.10;11.20;;;-1.50;99.90;;;;;;5093613;28;20752;-75
2023/02/11 05:39:38;;;;;;;14.80;10.40;;;-1.60;99.90;;;;;;5093346;28;20386;-75
2023/02/11 05:42:04;;;;;;;13.53;10.37;;;;;;;;;;5072333;28;20387;-75
2023/02/11 05:44:29;;;;;;;11.35;8.80;;;-1.80;99.90;;;;;;5088310;28;20419;-75
2023/02/11 05:46:55;;;;;;;12.63;9.30;;;-1.10;99.90;;;;;;5089788;28;20392;-74
2023/02/11 05:49:20;;;;;;;11.50;8.88;;;-1.80;99.90;;;;;;5093346;28;20435;-75
2023/02/11 05:51:46;;;;;;;12.85;9.38;;;-1.80;99.90;;;;;;5083219;28;20390;-75
2023/02/11 05:54:12;;;;;;;13.75;9.70;;;-1.70;99.90;;;;;;5092134;28;20465;-75
2023/02/11 05:56:37;;;;;;;11.73;9.47;;;-1.50;99.90;;;;;;5093454;28;20479;-75
2023/02/11 05:59:03;;;;;;;16.20;11.17;;;-1.80;99.90;;;;;;5093207;28;20389;-75
2023/02/11 06:01:28;;;;;;;14.00;9.80;;;-1.80;99.90;;;;;;5093478;28;20390;-75
2023/02/11 06:03:54;;;;;;;13.10;9.77;;;-1.90;99.90;;;;;;5093004;28;20394;-75
2023/02/11 06:06:20;;;;;;;14.70;11.20;;;-1.70;99.90;;;;;;5092869;28;20386;-75
2023/02/11 06:08:45;;;;;;;13.43;10.10;;;-1.80;99.90;;;;;;5093502;28;20378;-75
2023/02/11 06:11:14;;;;;;;14.52;9.95;;;-1.60;99.90;;;;;;5093254;28;20377;-75
2023/02/11 06:13:39;;;;;;;12.75;9.35;;;;;;;;;;5084762;28;20394;-75
2023/02/11 06:16:05;;;;;;;13.10;9.57;;;-1.60;99.90;;;;;;5092123;28;20386;-75
2023/02/11 06:18:32;;;;;;;12.57;9.07;;;-1.50;99.90;;;;;;5092350;28;20752;-75
2023/02/11 06:20:58;;;;;;;13.73;9.15;;;-1.60;99.90;;;;;;5092564;28;20398;-75
2023/02/11 06:23:24;;;;;;;14.95;9.27;;;-1.30;99.90;;;;;;5072747;28;20398;-75
2023/02/11 06:25:50;;;;;;;11.53;8.30;;;-1.20;99.90;;;;;;5072401;28;20892;-75
2023/02/11 06:28:15;;;;;;;12.38;9.18;;;;;;;;;;5072818;28;20407;-75
2023/02/11 06:30:41;;;;;;;11.17;8.07;;;-0.90;99.90;;;;;;5072801;28;20411;-75
2023/02/11 06:33:06;;;;;;;10.50;7.13;;;-0.90;99.90;;;;;;5071220;28;20388;-75
2023/02/11 06:35:34;;;;;;;11.20;8.00;;;-1.00;99.90;;;;;;5073034;28;20383;-75
2023/02/11 06:38:00;;;;;;;11.05;7.35;;;-0.50;99.90;;;;;;5092374;28;20394;-75
2023/02/11 06:40:26;;;;;;;11.20;7.93;;;-0.50;99.90;;;;;;5092854;28;20382;-76
2023/02/11 06:42:51;;;;;;;13.48;8.30;;;-0.80;99.90;;;;;;5093093;28;20393;-76
2023/02/11 06:45:19;;;;;;;11.88;8.20;;;-1.00;99.90;;;;;;5092257;28;20437;-75
2023/02/11 06:47:44;;;;;;;12.30;9.10;;;-0.50;99.90;;;;;;5092421;28;20415;-75
2023/02/11 06:50:13;;;;;;;12.43;8.15;;;-0.90;99.90;;;;;;5073654;28;20384;-75
2023/02/11 06:52:39;;;;;;;11.63;8.90;;;-1.10;99.90;;;;;;5083589;28;20390;-74
2023/02/11 06:55:05;;;;;;;11.57;8.35;;;-1.10;99.90;;;;;;5092405;28;20388;-75
2023/02/11 06:57:31;;;;;;;11.23;7.67;;;-1.10;99.90;;;;;;5073551;28;20883;-75
2023/02/11 06:59:57;;;;;;;13.30;8.57;;;;;;;;;;5092415;28;20386;-75
2023/02/11 07:02:22;;;;;;;10.07;7.93;;;-1.20;99.90;;;;;;5092070;28;20387;-75
2023/02/11 07:04:48;;;;;;;11.25;7.90;;;-1.20;99.90;;;;;;5074158;28;20401;-75
2023/02/11 07:07:14;;;;;;;11.07;7.40;;;-0.80;99.90;;;;;;5076342;28;20427;-75
2023/02/11 07:09:40;;;;;;;13.82;8.50;;;-1.20;99.90;;;;;;5072083;28;20479;-75
2023/02/11 07:12:07;;;;;;;11.48;8.55;;;-1.00;99.90;;;;;;5089435;28;20474;-75
2023/02/11 07:14:33;;;;;;;11.40;7.90;;;-0.90;99.90;;;;;;5073270;28;20493;-77
2023/02/11 07:16:59;;;;;;;11.70;8.87;;;;;;;;;;5091928;28;20476;-76
2023/02/11 07:19:25;;;;;;;10.13;7.93;;;;;;;;;;5092229;28;20382;-76
2023/02/11 07:21:50;;;;;;;14.10;9.10;;;-0.80;99.90;;;;;;5091961;28;20378;-76
2023/02/11 07:24:16;;;;;;;13.30;9.30;;;-0.80;99.90;;;;;;5091967;28;20441;-76
2023/02/11 07:26:42;;;;;;;11.50;8.10;;;-0.50;99.90;;;;;;5091805;28;20465;-76
2023/02/11 07:29:07;;;;;;;11.20;8.47;;;-0.60;99.90;;;;;;5091395;28;20390;-76
2023/02/11 07:31:33;;;;;;;12.37;8.60;;;-0.30;99.90;;;;;;5091433;28;20390;-76
2023/02/11 07:34:00;;;;;;;13.50;8.70;;;-0.20;99.90;;;;;;5091738;28;20378;-77
2023/02/11 07:36:27;;;;;;;12.50;8.30;;;0.00;99.90;;;;;;5091429;28;20371;-77
2023/02/11 07:38:52;;;;;;;10.95;8.40;;;-0.30;99.90;;;;;;5091738;28;20416;-77
2023/02/11 07:41:20;;;;;;;11.20;8.25;;;0.00;99.90;;;;;;5087466;28;20416;-77
2023/02/11 07:43:46;;;;;;;11.70;8.65;;;0.10;99.90;;;;;;5086066;28;20853;-77
2023/02/11 07:46:21;;;;;;;11.53;8.53;;;0.20;99.90;;;;;;5087261;28;20405;-77
2023/02/11 07:48:46;;;;;;;13.45;9.02;;;0.00;99.90;;;;;;5092032;28;20385;-77
2023/02/11 07:51:23;;;;;;;12.40;9.50;;;0.20;99.90;;;;;;5070732;28;20386;-77
2023/02/11 07:53:50;;;;;;;14.50;10.95;;;0.20;99.90;;;;;;5086706;28;20456;-77
2023/02/11 07:56:17;;;;;;;12.57;9.38;;;0.10;99.90;;;;;;5090730;28;20386;-77
2023/02/11 07:58:43;;;;;;;16.08;11.20;;;0.80;99.90;;;;;;5063928;28;20401;-77
2023/02/11 08:01:12;;;;;;;13.95;10.68;;;0.60;99.90;;;;;;5083205;28;20415;-76
2023/02/11 08:03:39;;;;;;;12.98;9.45;;;0.70;99.90;;;;;;5079207;28;21847;-76
2023/02/11 08:06:13;;;;;;;13.75;9.75;;;0.70;99.90;;;;;;5082629;28;20401;-77
2023/02/11 08:08:39;;;;;;;14.48;10.20;;;0.60;99.90;;;;;;5072874;28;20396;-77
2023/02/11 08:11:10;;;;;;;14.87;10.40;;;0.80;99.90;;;;;;5086126;28;20971;-77
2023/02/11 08:13:35;;;;;;;14.07;10.75;;;0.80;99.90;;;;;;5078608;28;20470;-76
2023/02/11 08:16:02;;;;;;;14.25;11.15;;;0.90;99.90;;;;;;5086064;28;20477;-77
2023/02/11 08:18:28;;;;;;;17.05;12.25;;;0.90;99.90;;;;;;5084568;28;20481;-77
2023/02/11 08:20:53;;;;;;;15.18;11.27;;;0.60;99.90;;;;;;5090324;28;20398;-76
2023/02/11 08:23:19;;;;;;;16.77;12.80;;;0.60;99.90;;;;;;5084325;28;20921;-77
2023/02/11 08:25:44;;;;;;;16.13;12.50;;;1.10;99.90;;;;;;5078154;28;20484;-77
2023/02/11 08:28:10;;;;;;;18.07;14.10;;;0.90;99.90;;;;;;5077593;28;20395;-77
2023/02/11 08:30:35;;;;;;;20.63;15.30;;;1.40;99.90;;;;;;5084454;28;20468;-77
2023/02/11 08:33:01;;;;;;;18.30;13.83;;;1.50;99.90;;;;;;5055886;28;20445;-77
2023/02/11 08:35:27;;;;;;;17.33;13.60;;;1.40;99.90;;;;;;5067492;28;20387;-76
2023/02/11 08:37:52;;;;;;;18.93;12.80;;;1.70;99.90;;;;;;5081212;28;20398;-77
2023/02/11 08:40:19;;;;;;;17.40;13.10;;;1.10;99.90;;;;;;5090450;28;20401;-77
2023/02/11 08:42:44;;;;;;;15.48;11.68;;;1.50;99.90;;;;;;5076774;28;21826;-77
2023/02/11 08:45:11;;;;;;;16.00;12.53;;;1.40;99.90;;;;;;5079933;28;20398;-77
2023/02/11 08:47:37;;;;;;;17.80;13.35;;;0.60;99.90;;;;;;5066253;28;20392;-76
2023/02/11 08:50:03;;;;;;;19.73;13.50;;;1.60;99.90;;;;;;5070298;28;20868;-77
2023/02/11 08:52:28;;;;;;;17.55;13.45;;;1.90;99.90;;;;;;5084885;28;20389;-77
2023/02/11 08:54:54;;;;;;;21.20;13.52;;;1.80;99.90;;;;;;5085507;28;20453;-77
2023/02/11 08:57:19;;;;;;;19.00;12.60;;;2.20;99.90;;;;;;5078726;28;20408;-75
2023/02/11 08:59:45;;;;;;;18.85;12.65;;;1.80;99.90;;;;;;5060243;28;20384;-75
2023/02/11 09:02:12;;;;;;;17.38;12.68;;;2.20;99.90;;;;;;5081005;28;20388;-75
2023/02/11 09:04:39;;;;;;;17.10;12.60;;;2.00;99.90;;;;;;5086511;28;20491;-76
2023/02/11 09:07:04;;;;;;;16.80;12.38;;;2.20;99.90;;;;;;5066221;28;20393;-76
2023/02/11 09:09:30;;;;;;;15.65;12.40;;;1.70;99.90;;;;;;5066480;28;20408;-76
2023/02/11 09:11:56;;;;;;;17.88;12.65;;;2.20;99.90;;;;;;5088950;28;21129;-77
2023/02/11 09:14:23;;;;;;;17.45;12.85;;;2.40;99.90;;;;;;5091644;22;20435;-73
2023/02/11 09:16:51;;;;;;;17.00;12.32;;;2.10;99.90;;;;;;5088599;28;20516;-72
2023/02/11 09:19:17;;;;;;;17.40;12.50;;;2.70;99.90;;;;;;5090338;28;20381;-73
2023/02/11 09:21:43;;;;;;;18.08;12.88;;;2.10;99.90;;;;;;5088788;28;20439;-73
2023/02/11 09:24:09;;;;;;;20.27;14.40;;;2.50;99.90;;;;;;5090182;28;20893;-73
2023/02/11 09:26:35;;;;;;;21.33;14.82;;;2.20;99.90;;;;;;5086289;28;20424;-72
2023/02/11 09:29:03;;;;;;;21.90;14.73;;;2.70;99.90;;;;;;5075886;28;20493;-73
2023/02/11 09:31:30;;;;;;;21.17;16.48;;;2.60;99.90;;;;;;5090406;28;20447;-73
2023/02/11 09:33:58;;;;;;;23.45;17.88;;;2.70;99.90;;;;;;5089989;28;20413;-73
2023/02/11 09:36:39;;;;;;;25.25;17.80;;;2.50;99.90;;;;;;5089829;28;20392;-72
2023/02/11 09:39:08;;;;;;;25.60;19.70;;;2.80;99.90;;;;;;5088456;28;20438;-73
2023/02/11 09:41:48;;;;;;;27.15;18.00;;;2.90;99.90;;;;;;5080432;28;20378;-73
2023/02/11 09:44:26;;;;;;;22.17;15.93;;;3.10;99.90;;;;;;5089541;28;20374;-73
2023/02/11 09:47:23;;;;;;;21.90;16.35;;;3.20;99.90;;;;;;5086687;28;20402;-73
2023/02/11 09:49:55;;;;;;;26.20;17.10;;;3.40;99.90;;;;;;5089923;28;20378;-73
2023/02/11 09:52:40;;;;;;;25.65;19.63;;;3.10;99.90;;;;;;5092149;28;20378;-73
2023/02/11 09:55:20;;;;;;;27.52;20.00;;;3.40;98.50;;;;;;5086091;28;20478;-72
2023/02/11 09:57:46;;;;;;;26.65;19.55;;;3.40;98.10;;;;;;5084441;28;20414;-73
2023/02/11 10:00:22;;;;;;;27.67;19.87;;;3.50;98.20;;;;;;5092132;28;20429;-74
2023/02/11 10:03:20;;;;;;;24.38;16.80;;;3.70;95.00;;;;;;5073239;28;20394;-72
2023/02/11 10:06:09;;;;;;;20.05;15.70;;;3.80;99.50;;;;;;5081581;28;20418;-72
2023/02/11 10:08:56;;;;;;;19.47;14.70;;;4.00;91.50;;;;;;5074782;28;20395;-72
2023/02/11 10:11:33;;;;;;;20.48;14.70;;;4.10;89.60;;;;;;5073602;28;20438;-74
2023/02/11 10:14:43;;;;;;;18.88;14.80;;;4.40;90.10;;;;;;5079400;28;20478;-73
2023/02/11 10:17:27;;;;;;;18.80;14.13;;;4.50;90.80;;;;;;5093231;28;20542;-73
2023/02/11 10:20:02;;;;;;;18.85;13.95;;;3.70;84.30;;;;;;5093407;28;20370;-73
2023/02/11 10:22:33;;;;;;;17.50;13.50;;;4.60;91.70;;;;;;5092158;28;20378;-73
2023/02/11 10:25:04;;;;;;;19.80;13.75;;;4.70;88.70;;;;;;5091950;28;20409;-72
2023/02/11 10:27:34;;;;;;;19.42;14.13;;;4.60;78.90;;;;;;5093051;28;20798;-76
2023/02/11 10:30:06;;;;;;;17.27;14.40;;;4.80;86.90;;;;;;5091702;28;20443;-73
2023/02/11 10:32:43;;;;;;;21.27;14.70;;;4.90;80.00;;;;;;5092699;28;20378;-73
2023/02/11 10:35:21;;;;;;;18.02;14.20;;;5.10;83.20;;;;;;5091741;28;20450;-72
2023/02/11 10:37:47;;;;;;;19.17;14.53;;;5.30;67.90;;;;;;5093114;28;20729;-73
2023/02/11 10:40:18;;;;;;;19.20;13.98;;;6.30;72.30;;;;;;5093130;28;20385;-73
2023/02/11 10:42:48;;;;;;;17.35;14.18;;;5.40;71.30;;;;;;5091915;28;20420;-72
2023/02/11 10:45:44;;;;;;;18.55;13.90;;;5.70;77.70;;;;;;5092082;28;20407;-71
2023/02/11 10:48:40;;;;;;;20.10;15.30;;;5.50;66.50;;;;;;5091392;28;20382;-72
2023/02/11 10:51:11;;;;;;;22.63;16.20;;;5.60;63.10;;;;;;5088617;28;20403;-72
2023/02/11 10:53:38;;;;;;;21.00;15.65;;;5.40;66.80;;;;;;5093000;28;20385;-73
2023/02/11 10:56:05;;;;;;;23.20;17.60;;;5.90;63.00;;;;;;5092350;28;20386;-72
2023/02/11 10:58:40;;;;;;;23.75;18.15;;;5.50;62.50;;;;;;5092661;28;20790;-73
2023/02/11 11:01:06;;;;;;;22.58;17.50;;;5.80;62.10;;;;;;5092433;28;20401;-73
2023/02/11 11:03:39;;;;;;;26.52;18.60;;;5.70;61.00;;;;;;5091876;28;20398;-73
2023/02/11 11:06:07;;;;;;;27.88;19.70;;;5.70;62.50;;;;;;5090240;28;20437;-73
2023/02/11 11:08:40;;;;;;;24.40;18.85;;;6.00;61.50;;;;;;5092552;28;20469;-72
2023/02/11 11:11:09;;;;;;;25.77;20.23;;;5.80;60.20;;;;;;5092559;28;20386;-72
2023/02/11 11:13:38;;;;;;;28.40;19.55;;;6.40;59.30;;;;;;5088505;28;20381;-73
2023/02/11 11:16:11;;;;;;;25.65;18.95;;;6.50;63.70;;;;;;5091709;28;20420;-72
2023/02/11 11:18:37;;;;;;;25.73;20.30;;;6.50;59.90;;;;;;5091967;28;20386;-73
2023/02/11 11:21:11;;;;;;;26.50;20.08;;;6.50;56.60;;;;;;5092266;28;20390;-73
2023/02/11 11:23:37;;;;;;;27.80;21.30;;;;;;;;;;5092161;28;20755;-72
2023/02/11 11:26:14;;;;;;;28.92;22.55;;;6.90;56.40;;;;;;5089420;28;20914;-72
2023/02/11 11:28:50;;;;;;;29.10;22.63;;;6.90;55.10;;;;;;5091780;28;20902;-72
2023/02/11 11:31:23;;;;;;;29.40;21.77;;;7.30;61.70;;;;;;5092235;28;20446;-72
2023/02/11 11:33:51;;;;;;;27.20;21.02;;;7.80;52.80;;;;;;5091761;28;20426;-73
2023/02/11 11:36:21;;;;;;;26.15;19.73;;;7.60;57.20;;;;;;5077514;28;20390;-73
2023/02/11 11:38:54;;;;;;;28.40;20.67;;;7.80;53.10;;;;;;5092469;28;20440;-73
2023/02/11 11:41:30;;;;;;;26.13;20.45;;;9.00;41.10;;;;;;5092007;28;20385;-73
2023/02/11 11:44:16;;;;;;;25.92;19.58;;;9.30;40.70;;;;;;5088738;28;20477;-73
2023/02/11 11:46:43;;;;;;;28.35;19.83;;;9.50;33.60;;;;;;5091479;28;20405;-73
2023/02/11 11:49:27;;;;;;;26.48;20.30;;;9.40;35.30;;;;;;5091726;28;20412;-74
2023/02/11 11:52:07;;;;;;;27.98;21.23;;;9.10;39.10;;;;;;5090975;28;20886;-73
2023/02/11 11:54:33;;;;;;;23.77;19.60;;;9.60;32.70;;;;;;5086393;28;20489;-73
2023/02/11 11:57:09;;;;;;;25.60;20.50;;;9.60;42.40;;;;;;5088714;28;20520;-77
2023/02/11 11:59:35;;;;;;;24.02;20.15;;;10.40;32.40;;;;;;5091183;28;20385;-77
2023/02/11 12:02:26;;;;;;;25.00;20.10;;;11.60;30.60;;;;;;5086621;28;20429;-76
2023/02/11 12:05:10;;;;;;;27.98;21.05;;;10.50;35.10;;;;;;5089875;28;20406;-76
2023/02/11 12:07:46;;;;;;;26.17;21.42;;;10.40;27.90;;;;;;5086973;28;21010;-75
2023/02/11 12:10:42;;;;;;;22.90;19.00;;;10.80;29.60;;;;;;5082457;28;20398;-75
2023/02/11 12:13:22;;;;;;;26.20;20.83;;;11.00;26.20;;;;;;5087470;28;20386;-75
2023/02/11 12:15:58;;;;;;;23.92;21.23;;;11.00;34.00;;;;;;5088413;28;20400;-76
2023/02/11 12:18:45;;;;;;;24.73;20.77;;;11.70;23.40;;;;;;5086461;28;20477;-76
2023/02/11 12:21:36;;;;;;;26.37;21.43;;;11.20;22.50;;;;;;5085452;28;20398;-76
2023/02/11 12:24:21;;;;;;;26.65;22.50;;;11.90;25.80;;;;;;5087973;28;20446;-77
2023/02/11 12:26:54;;;;;;;25.17;22.42;;;11.90;29.50;;;;;;5088177;28;20444;-76
2023/02/11 12:29:56;;;;;;;24.00;21.38;;;12.10;21.30;;;;;;5089703;28;20386;-77
2023/02/11 12:32:43;;;;;;;24.85;20.17;;;12.00;25.40;;;;;;5088660;28;20378;-76
2023/02/11 12:35:46;;;;;;;23.73;20.45;;;11.40;22.60;;;;;;5088177;28;20390;-76
2023/02/11 12:38:56;;;;;;;25.25;21.65;;;12.50;22.10;;;;;;5082582;28;20761;-76
2023/02/11 12:43:15;;;;;;;27.45;22.00;;;12.10;20.50;;;;;;5070724;28;20446;-75
2023/02/11 12:44:28;;;;;;;23.73;20.80;;;10.90;22.80;;;;;;5089469;28;20374;-76
2023/02/11 12:47:10;;;;;;;25.25;21.13;;;12.10;21.30;;;;;;5085288;28;20390;-76
2023/02/11 12:50:09;;;;;;;29.00;22.75;;;12.00;23.60;;;;;;5089738;28;20386;-77
2023/02/11 12:52:49;;;;;;;23.37;20.87;;;12.20;18.10;;;;;;5088870;28;20382;-76
2023/02/11 12:55:25;;;;;;;26.55;21.70;;;11.20;22.70;;;;;;5090341;28;20444;-76
2023/02/11 12:57:53;;;;;;;27.23;21.20;;;11.30;20.50;;;;;;5087735;28;20421;-77
2023/02/11 13:00:28;;;;;;;25.05;21.77;;;10.90;25.70;;;;;;5085970;28;20396;-75